createdAt,value
2023-01-19T04:46:16.556Z,449.50
2023-01-19T04:48:43.235Z,448.35
2023-01-19T04:51:09.925Z,452.65
2023-01-19T04:53:36.759Z,453.27
2023-01-19T04:56:03.540Z,455.52
2023-01-19T04:58:30.256Z,455.30
2023-01-19T05:00:56.995Z,457.27
2023-01-19T05:03:25.709Z,457.35
2023-01-19T05:05:53.321Z,457.88
2023-01-19T05:08:20.075Z,463.98
2023-01-19T05:10:48.168Z,462.70
2023-01-19T05:13:14.794Z,462.17
2023-01-19T05:15:42.116Z,465.98
2023-01-19T05:18:08.860Z,462.23
2023-01-19T05:20:35.547Z,463.88
2023-01-19T05:23:02.604Z,467.13
2023-01-19T05:25:29.478Z,464.55
2023-01-19T05:27:56.102Z,463.45
2023-01-19T05:30:22.826Z,457.77
2023-01-19T05:32:49.420Z,456.17
2023-01-19T05:35:20.148Z,454.25
2023-01-19T05:37:51.703Z,446.50
2023-01-19T05:40:18.485Z,445.27
2023-01-19T05:42:45.125Z,440.30
2023-01-19T05:45:12.396Z,435.45
2023-01-19T05:47:39.902Z,433.25
2023-01-19T05:50:07.377Z,432.83
2023-01-19T05:55:00.509Z,436.08
2023-01-19T05:57:27.099Z,440.35
2023-01-19T05:59:53.752Z,440.80
2023-01-19T06:02:20.541Z,440.90
2023-01-19T06:04:47.175Z,440.60
2023-01-19T06:07:13.968Z,443.98
2023-01-19T06:09:40.591Z,438.85
2023-01-19T06:12:07.347Z,438.52
2023-01-19T06:14:34.106Z,443.33
2023-01-19T06:17:01.116Z,448.63
2023-01-19T06:19:27.958Z,441.65
2023-01-19T06:21:54.629Z,439.92
2023-01-19T06:24:21.447Z,442.60
2023-01-19T06:26:48.045Z,440.95
2023-01-19T06:29:15.115Z,447.60
2023-01-19T06:31:41.938Z,442.13
2023-01-19T06:34:09.010Z,446.25
2023-01-19T06:36:36.283Z,444.48
2023-01-19T06:39:05.752Z,450.17
2023-01-19T06:41:33.557Z,451.10
2023-01-19T06:44:00.375Z,448.38
2023-01-19T06:46:27.483Z,448.27
2023-01-19T06:48:54.664Z,450.77
2023-01-19T06:51:22.272Z,439.00
2023-01-19T06:53:48.978Z,445.08
2023-01-19T06:56:15.892Z,444.92
2023-01-19T06:58:43.287Z,453.55
2023-01-19T07:01:10.334Z,459.77
2023-01-19T07:03:37.972Z,456.98
2023-01-19T07:06:06.674Z,457.13
2023-01-19T07:08:34.741Z,457.75
2023-01-19T07:11:25.392Z,456.05
2023-01-19T07:13:57.054Z,460.45
2023-01-19T07:16:23.830Z,459.80
2023-01-19T07:18:50.878Z,457.07
2023-01-19T07:21:17.806Z,456.25
2023-01-19T07:23:44.665Z,452.65
2023-01-19T07:26:11.438Z,452.38
2023-01-19T07:28:38.162Z,452.52
2023-01-19T07:31:05.122Z,461.73
2023-01-19T07:33:31.844Z,457.88
2023-01-19T07:35:58.589Z,456.40
2023-01-19T07:38:25.535Z,450.65
2023-01-19T07:40:52.203Z,450.42
2023-01-19T07:43:19.350Z,450.17
2023-01-19T07:45:46.170Z,455.63
2023-01-19T07:48:12.841Z,454.73
2023-01-19T07:50:39.451Z,458.58
2023-01-19T07:53:07.635Z,457.50
2023-01-19T07:55:34.555Z,462.50
2023-01-19T07:58:01.305Z,462.48
2023-01-19T08:00:28.029Z,468.00
2023-01-19T08:03:01.586Z,465.00
2023-01-19T08:05:31.860Z,468.67
2023-01-19T08:07:59.167Z,463.60
2023-01-19T08:10:27.168Z,461.45
2023-01-19T08:12:54.956Z,466.63
2023-01-19T08:15:24.020Z,460.23
2023-01-19T08:17:58.340Z,464.30
2023-01-19T08:20:25.943Z,469.95
2023-01-19T08:22:59.780Z,471.65
2023-01-19T08:25:32.761Z,473.95
2023-01-19T08:27:59.503Z,469.42
2023-01-19T08:30:26.913Z,471.55
2023-01-19T08:33:03.931Z,468.40
2023-01-19T08:35:31.941Z,470.50
2023-01-19T08:38:01.276Z,475.73
2023-01-19T08:40:29.736Z,483.98
2023-01-19T08:43:09.429Z,485.02
2023-01-19T08:45:37.771Z,499.63
2023-01-19T09:17:30.694Z,792.08
